Time;durP1;ratioP1;P1;durP2;ratioP2;P2;SDS_P1;SDS_P2;PMS_P1;PMS_P2;Temp;Humidity;BMP_temperature;BMP_pressure;BME280_temperature;BME280_humidity;BME280_pressure;Samples;Min_cycle;Max_cycle;Signal;HPM_P1;HPM_P2
2021/08/27 00:01:33;;;;;;;3.20;3.00;;;;;;;14.57;74.35;98851.09;4886744;29;20239;-83
2021/08/27 00:04:00;;;;;;;2.90;2.60;;;;;;;14.63;74.55;98850.03;4871088;29;20229;-85
2021/08/27 00:06:26;;;;;;;3.33;2.50;;;;;;;14.70;74.08;98855.97;4886079;29;20271;-82
2021/08/27 00:08:53;;;;;;;3.60;2.47;;;;;;;14.77;73.76;98867.34;4917282;29;20258;-82
2021/08/27 00:11:20;;;;;;;2.60;2.40;;;;;;;14.80;73.87;98864.09;4873567;29;20622;-82
2021/08/27 00:13:47;;;;;;;3.97;2.67;;;;;;;14.78;73.51;98862.75;4901922;29;20228;-85
2021/08/27 00:16:14;;;;;;;2.73;2.40;;;;;;;14.78;73.30;98860.88;4886073;29;20288;-88
2021/08/27 00:18:41;;;;;;;3.20;2.67;;;;;;;14.81;72.80;98854.94;4893370;29;20797;-83
2021/08/27 00:21:07;;;;;;;3.00;2.47;;;;;;;14.80;72.59;98852.50;4901119;29;20229;-84
2021/08/27 00:23:34;;;;;;;2.67;2.47;;;;;;;14.87;72.64;98853.06;4886315;29;20241;-84
2021/08/27 00:26:01;;;;;;;2.73;2.47;;;;;;;14.93;72.03;98862.81;4885675;29;20236;-82
2021/08/27 00:28:28;;;;;;;2.93;2.53;;;;;;;14.87;72.15;98859.28;4885650;29;20307;-81
2021/08/27 00:30:57;;;;;;;3.07;2.77;;;;;;;14.87;71.96;98850.38;4885966;29;20255;-84
2021/08/27 00:33:25;;;;;;;2.80;2.60;;;;;;;14.94;71.80;98854.44;4901609;29;20232;-84
2021/08/27 00:35:52;;;;;;;2.67;2.47;;;;;;;14.91;71.91;98856.84;4901178;29;20285;-86
2021/08/27 00:38:19;;;;;;;2.67;2.37;;;;;;;14.90;71.71;98850.66;4885528;29;20604;-85
2021/08/27 00:40:46;;;;;;;4.03;2.77;;;;;;;14.95;71.28;98849.84;4886446;29;20232;-84
2021/08/27 00:43:13;;;;;;;2.90;2.70;;;;;;;15.03;70.74;98860.09;4904578;29;20326;-83
2021/08/27 00:45:41;;;;;;;2.73;2.43;;;;;;;15.04;70.58;98860.91;4920362;29;20261;-82
2021/08/27 00:48:08;;;;;;;2.60;2.40;;;;;;;15.14;69.88;98859.06;4904039;29;20247;-84
2021/08/27 00:50:35;;;;;;;3.00;2.70;;;;;;;15.12;70.23;98863.09;4919997;29;20252;-86
2021/08/27 00:53:02;;;;;;;3.40;2.70;;;;;;;15.14;70.07;98861.75;4871357;29;20241;-82
2021/08/27 00:55:29;;;;;;;3.30;2.73;;;;;;;15.20;70.37;98876.06;4885402;29;20244;-83
2021/08/27 00:57:56;;;;;;;3.70;2.50;;;;;;;15.27;70.07;98876.59;4901043;29;20236;-82
2021/08/27 01:00:23;;;;;;;3.00;2.70;;;;;;;15.22;70.27;98874.72;4900606;29;20244;-84
2021/08/27 01:02:52;;;;;;;2.73;2.53;;;;;;;15.26;69.87;98885.78;4901999;29;20232;-84
2021/08/27 01:05:20;;;;;;;3.20;2.77;;;;;;;15.26;69.85;98885.78;4899855;29;20629;-83
2021/08/27 01:07:55;;;;;;;2.60;2.40;;;;;;;15.28;69.76;98892.53;4901320;29;20350;-83
2021/08/27 01:10:29;;;;;;;3.10;2.67;;;;;;;15.30;70.25;98894.97;4894658;29;20242;-84
2021/08/27 01:13:05;;;;;;;3.23;2.80;;;;;;;15.27;70.46;98899.00;4904227;29;20232;-82
2021/08/27 01:15:45;;;;;;;3.40;3.10;;;;;;;15.26;71.00;98899.28;4919560;29;20978;-86
2021/08/27 01:18:19;;;;;;;2.73;2.53;;;;;;;15.22;71.72;98904.41;4903807;29;20315;-84
2021/08/27 01:21:06;;;;;;;3.23;2.57;;;;;;;15.15;72.27;98903.03;4874290;29;20232;-82
2021/08/27 01:23:46;;;;;;;3.23;2.90;;;;;;;15.15;72.84;98903.03;4885350;29;20240;-85
2021/08/27 01:26:16;;;;;;;2.70;2.50;;;;;;;15.03;72.87;98895.19;4884622;29;20706;-85
2021/08/27 01:28:49;;;;;;;3.50;2.67;;;;;;;15.06;73.20;98901.94;4885308;29;20299;-87
2021/08/27 01:32:07;;;;;;;2.93;2.60;;;;;;;15.06;73.24;98902.75;4901059;29;20307;-87
2021/08/27 01:34:40;;;;;;;2.97;2.43;;;;;;;15.03;72.74;98902.44;4878062;29;20232;-85
2021/08/27 01:37:11;;;;;;;4.37;2.70;;;;;;;15.08;72.74;98913.25;4919460;29;20233;-84
2021/08/27 01:39:42;;;;;;;2.83;2.60;;;;;;;15.08;72.87;98914.06;4883923;29;20267;-84
2021/08/27 01:42:11;;;;;;;3.40;3.10;;;;;;;15.08;72.99;98919.47;4884479;29;20289;-86
2021/08/27 01:44:39;;;;;;;3.30;2.50;;;;;;;15.05;72.98;98917.31;4884698;29;20231;-87
2021/08/27 01:47:07;;;;;;;2.80;2.60;;;;;;;15.07;73.35;98923.22;4884990;29;20233;-84
2021/08/27 01:49:34;;;;;;;2.90;2.57;;;;;;;15.05;73.21;98920.00;4902845;29;20319;-85
2021/08/27 01:52:04;;;;;;;2.80;2.60;;;;;;;15.07;73.02;98919.75;4903094;29;20255;-85
2021/08/27 01:54:31;;;;;;;3.10;2.90;;;;;;;15.07;73.00;98922.44;4903388;29;20329;-84
2021/08/27 01:56:58;;;;;;;3.20;2.90;;;;;;;15.02;73.06;98914.34;4919074;29;20232;-82
2021/08/27 01:59:30;;;;;;;4.30;3.17;;;;;;;15.04;73.23;98922.97;4916440;29;20298;-86
2021/08/27 02:01:57;;;;;;;3.70;3.40;;;;;;;15.07;73.56;98919.75;4884369;29;20258;-84
2021/08/27 02:04:25;;;;;;;4.90;3.47;;;;;;;14.94;73.38;98897.59;4899670;29;20236;-84
2021/08/27 02:06:52;;;;;;;4.03;3.63;;;;;;;15.08;73.43;98918.66;4869046;29;20283;-86
2021/08/27 02:09:19;;;;;;;3.40;3.10;;;;;;;15.07;74.10;98922.44;4884594;29;20626;-84
2021/08/27 02:11:46;;;;;;;3.40;3.10;;;;;;;15.04;74.37;98929.19;4902811;29;20645;-83
2021/08/27 02:14:15;;;;;;;3.50;3.20;;;;;;;15.03;74.80;98929.44;4917625;29;20282;-83
2021/08/27 02:16:41;;;;;;;2.97;2.73;;;;;;;14.93;75.12;98925.63;4902873;29;20288;-84
2021/08/27 02:19:08;;;;;;;3.20;2.90;;;;;;;14.88;74.92;98917.50;4919203;29;20709;-82
2021/08/27 02:21:40;;;;;;;3.20;2.93;;;;;;;14.91;75.05;98924.28;4917930;29;20243;-86
2021/08/27 02:24:14;;;;;;;3.93;2.93;;;;;;;14.92;75.53;98934.81;4887051;29;20241;-82
2021/08/27 02:26:46;;;;;;;3.40;3.00;;;;;;;14.93;75.43;98927.53;4887189;29;20692;-86
2021/08/27 02:29:15;;;;;;;4.87;3.50;;;;;;;14.95;75.75;98933.47;4902631;29;20300;-82
2021/08/27 02:31:44;;;;;;;3.47;3.10;;;;;;;14.86;76.03;98927.78;4918107;29;20231;-83
2021/08/27 02:34:13;;;;;;;3.10;2.90;;;;;;;14.84;76.07;98929.91;4902353;29;20236;-85
2021/08/27 02:36:40;;;;;;;4.77;3.10;;;;;;;14.75;76.36;98923.41;4918126;29;20311;-79
2021/08/27 02:39:08;;;;;;;3.37;3.07;;;;;;;14.76;76.32;98927.72;4902619;29;20303;-84
2021/08/27 02:41:34;;;;;;;3.03;2.73;;;;;;;14.71;76.46;98924.19;4879841;29;20241;-80
2021/08/27 02:44:01;;;;;;;4.17;3.40;;;;;;;14.72;76.49;98931.22;4895584;29;20238;-85
2021/08/27 02:46:28;;;;;;;4.90;3.50;;;;;;;14.70;76.72;98922.56;4899457;29;20296;-86
2021/08/27 02:48:56;;;;;;;3.90;3.50;;;;;;;14.66;77.57;98929.56;4868858;29;20676;-86
2021/08/27 02:51:38;;;;;;;4.30;3.90;;;;;;;14.67;77.84;98921.22;4879193;29;20238;-85
2021/08/27 02:54:06;;;;;;;3.40;3.00;;;;;;;14.64;78.19;98916.38;4898840;29;20290;-80
2021/08/27 02:56:37;;;;;;;4.37;3.97;;;;;;;14.62;78.20;98910.41;4883794;29;20239;-87
2021/08/27 02:59:10;;;;;;;4.43;4.03;;;;;;;14.66;77.74;98913.38;4899325;29;20236;-81
2021/08/27 03:01:40;;;;;;;4.37;3.70;;;;;;;14.71;76.95;98910.72;4901359;29;20291;-80
2021/08/27 03:04:19;;;;;;;4.23;3.80;;;;;;;14.89;76.95;98912.94;4898593;29;20235;-83
2021/08/27 03:07:07;;;;;;;4.67;4.17;;;;;;;14.79;77.31;98921.78;4900413;29;20236;-83
2021/08/27 03:09:54;;;;;;;5.03;4.33;;;;;;;14.68;77.90;98911.25;4899575;29;20589;-85
2021/08/27 03:12:33;;;;;;;4.87;4.47;;;;;;;14.74;78.02;98923.69;4920684;29;20238;-83
2021/08/27 03:15:01;;;;;;;4.47;4.07;;;;;;;14.74;78.11;98921.00;4921833;29;20233;-82
2021/08/27 03:17:32;;;;;;;4.30;3.90;;;;;;;14.76;78.19;98927.72;4906227;29;20275;-81
2021/08/27 03:20:08;;;;;;;6.17;4.20;;;;;;;14.78;78.25;98932.88;4889247;29;20247;-84
2021/08/27 03:22:43;;;;;;;5.83;4.07;;;;;;;14.70;78.64;98914.47;4905842;29;20230;-82
2021/08/27 03:25:12;;;;;;;5.27;4.40;;;;;;;14.62;78.28;98907.72;4905948;29;20304;-84
2021/08/27 03:27:42;;;;;;;4.43;4.03;;;;;;;14.66;78.42;98908.00;4921678;29;20285;-81
2021/08/27 03:30:13;;;;;;;4.63;4.23;;;;;;;14.67;78.19;98923.91;4900153;29;20280;-85
2021/08/27 03:32:44;;;;;;;4.10;3.70;;;;;;;14.67;78.39;98929.31;4902776;29;20232;-84
2021/08/27 03:35:13;;;;;;;4.47;4.07;;;;;;;14.70;78.39;98925.25;4902628;29;20649;-86
2021/08/27 03:37:40;;;;;;;4.03;3.63;;;;;;;14.71;78.25;98921.50;4902580;29;20674;-85
2021/08/27 03:40:09;;;;;;;4.80;4.40;;;;;;;14.66;78.09;98924.97;4891001;29;20227;-81
2021/08/27 03:42:37;;;;;;;5.07;4.57;;;;;;;14.67;78.32;98921.22;4890501;29;20313;-82
2021/08/27 03:45:05;;;;;;;4.80;4.40;;;;;;;14.64;78.38;98921.75;4921496;29;20288;-83
2021/08/27 03:47:32;;;;;;;5.43;4.93;;;;;;;14.54;78.78;98917.13;4890250;29;20320;-87
2021/08/27 03:49:59;;;;;;;5.10;4.70;;;;;;;14.52;78.91;98908.47;4903930;29;20285;-84
2021/08/27 03:52:26;;;;;;;5.60;5.10;;;;;;;14.57;78.97;98928.44;4889596;29;20231;-88
2021/08/27 03:54:53;;;;;;;5.60;4.97;;;;;;;14.52;79.33;98926.53;4921285;29;20236;-85
2021/08/27 03:57:20;;;;;;;5.30;4.70;;;;;;;14.53;79.32;98934.38;4905383;29;20323;-81
2021/08/27 03:59:47;;;;;;;6.10;5.50;;;;;;;14.50;79.66;98940.28;4919109;29;20293;-83
2021/08/27 04:02:14;;;;;;;6.17;5.57;;;;;;;14.49;79.75;98940.53;4901697;29;20238;-85
2021/08/27 04:04:41;;;;;;;6.53;5.73;;;;;;;14.43;79.93;98934.31;4886659;29;20345;-84
2021/08/27 04:07:08;;;;;;;6.70;6.10;;;;;;;14.42;79.73;98931.84;4871193;29;20270;-86
2021/08/27 04:09:35;;;;;;;6.07;5.57;;;;;;;14.49;80.00;98940.53;4886499;29;20315;-83
2021/08/27 04:12:05;;;;;;;6.30;5.70;;;;;;;14.50;80.14;98936.78;4885943;29;20235;-87
2021/08/27 04:14:33;;;;;;;6.03;5.27;;;;;;;14.57;79.92;98952.69;4902104;29;20232;-82
2021/08/27 04:17:01;;;;;;;6.37;5.87;;;;;;;14.48;80.02;98945.13;4886671;29;20663;-83
2021/08/27 04:19:28;;;;;;;6.20;5.60;;;;;;;14.57;79.95;98950.81;4886405;29;20299;-86
2021/08/27 04:21:55;;;;;;;6.13;4.93;;;;;;;14.55;79.82;98947.59;4887193;29;20235;-87
2021/08/27 04:24:24;;;;;;;5.27;4.63;;;;;;;14.53;79.64;98942.44;4904853;29;20240;-83
2021/08/27 04:26:51;;;;;;;5.73;4.70;;;;;;;14.51;79.74;98941.88;4905505;29;20286;-85
2021/08/27 04:29:18;;;;;;;4.33;3.80;;;;;;;14.53;78.84;98937.06;4920988;29;20238;-85
2021/08/27 04:31:45;;;;;;;4.10;3.70;;;;;;;14.56;78.43;98943.78;4888352;29;20232;-81
2021/08/27 04:34:11;;;;;;;3.20;2.93;;;;;;;14.54;78.40;98937.88;4901534;29;20240;-85
2021/08/27 04:36:38;;;;;;;4.63;3.90;;;;;;;14.54;78.47;98945.97;4886463;29;20239;-85
2021/08/27 04:39:05;;;;;;;3.67;3.37;;;;;;;14.48;78.14;98949.69;4901924;29;20596;-86
2021/08/27 04:41:32;;;;;;;4.30;3.40;;;;;;;14.43;78.42;98955.06;4902500;29;20254;-82
2021/08/27 04:43:59;;;;;;;3.20;2.90;;;;;;;14.37;77.88;98958.81;4902919;29;20500;-87
2021/08/27 04:46:26;;;;;;;3.63;2.57;;;;;;;14.36;78.21;98944.53;4902550;29;20235;-83
2021/08/27 04:48:53;;;;;;;3.63;2.90;;;;;;;14.39;78.28;98951.25;4901869;29;20239;-87
2021/08/27 04:51:21;;;;;;;3.67;2.77;;;;;;;14.49;78.19;98956.72;4883717;29;20231;-88
2021/08/27 04:53:48;;;;;;;5.60;3.00;;;;;;;14.57;78.17;98966.19;4920423;29;20234;-82
2021/08/27 04:56:15;;;;;;;4.53;2.80;;;;;;;14.52;78.05;98954.31;4888736;29;20246;-87
2021/08/27 04:58:42;;;;;;;3.93;2.80;;;;;;;14.50;78.12;98947.56;4898835;29;20230;-82
2021/08/27 05:01:09;;;;;;;2.97;2.77;;;;;;;14.51;78.40;98949.19;4908799;29;20643;-88
2021/08/27 05:03:36;;;;;;;3.10;2.80;;;;;;;14.54;78.15;98960.25;4885770;29;20704;-86
2021/08/27 05:06:04;;;;;;;2.70;2.50;;;;;;;14.66;78.46;98970.81;4900620;29;20243;-85
2021/08/27 05:08:31;;;;;;;3.70;2.60;;;;;;;14.72;77.66;98979.75;4885391;29;20407;-86
2021/08/27 05:10:58;;;;;;;2.50;2.30;;;;;;;14.73;77.56;98974.09;4900873;29;20288;-83
2021/08/27 05:13:25;;;;;;;2.70;2.20;;;;;;;14.69;77.15;98975.69;4885353;29;20268;-87
2021/08/27 05:15:52;;;;;;;4.30;2.30;;;;;;;14.70;76.74;98982.69;4870111;29;20267;-89
2021/08/27 05:18:19;;;;;;;5.13;2.40;;;;;;;14.71;76.69;98975.41;4900565;29;20319;-81
2021/08/27 05:20:47;;;;;;;2.93;2.50;;;;;;;14.75;76.82;98976.50;4903003;29;20306;-89
2021/08/27 05:23:13;;;;;;;3.50;2.17;;;;;;;14.76;76.77;98970.88;4900651;29;20232;-81
2021/08/27 05:25:40;;;;;;;3.07;2.07;;;;;;;14.85;76.49;98974.69;4869553;29;20236;-85
2021/08/27 05:28:07;;;;;;;2.33;2.03;;;;;;;14.87;76.12;98974.44;4900439;29;20293;-81
2021/08/27 05:30:33;;;;;;;2.60;2.40;;;;;;;14.92;76.44;98980.66;4900970;29;20239;-89
2021/08/27 05:33:00;;;;;;;5.00;2.30;;;;;;;14.95;76.25;98974.72;4885048;29;20236;-84
2021/08/27 05:35:27;;;;;;;3.70;2.40;;;;;;;15.07;76.08;98979.88;4904150;29;20237;-82
2021/08/27 05:37:54;;;;;;;3.03;2.00;;;;;;;15.23;75.78;98984.28;4884980;29;20240;-87
2021/08/27 05:40:21;;;;;;;3.20;2.50;;;;;;;15.36;76.23;98982.97;4906120;29;20677;-85
2021/08/27 05:42:48;;;;;;;3.13;2.40;;;;;;;15.55;74.93;98978.72;4919409;29;20236;-87
2021/08/27 05:45:15;;;;;;;2.40;2.20;;;;;;;15.69;75.32;98974.41;4903725;29;20648;-90
2021/08/27 05:47:43;;;;;;;4.07;3.60;;;;;;;15.85;74.75;98977.94;4910531;29;20233;-88
2021/08/27 05:50:13;;;;;;;5.70;4.30;;;;;;;15.93;74.69;98987.41;4915259;29;20247;-88
2021/08/27 05:52:40;;;;;;;3.50;3.10;;;;;;;16.02;73.89;98994.69;4899849;29;20232;-89
2021/08/27 05:55:07;;;;;;;3.00;2.70;;;;;;;15.97;73.89;98983.06;4908604;29;20231;-88
2021/08/27 05:57:34;;;;;;;2.63;2.20;;;;;;;16.04;73.20;98986.31;4884410;29;20251;-89
2021/08/27 06:00:03;;;;;;;3.33;2.23;;;;;;;16.07;72.76;98986.59;4910564;29;20237;-85
2021/08/27 06:02:31;;;;;;;4.97;4.40;;;;;;;16.16;72.75;98994.97;4915138;29;20315;-87
2021/08/27 06:04:59;;;;;;;12.70;11.40;;;;;;;16.13;72.62;98990.13;4902817;29;20327;-90
2021/08/27 06:07:27;;;;;;;3.37;2.07;;;;;;;16.14;71.63;98995.22;4898097;29;20225;-90
2021/08/27 06:09:53;;;;;;;2.57;2.30;;;;;;;16.16;71.72;98979.56;4888904;29;20244;-87
2021/08/27 06:12:20;;;;;;;2.50;2.30;;;;;;;16.24;71.84;98987.13;4884503;29;20276;-89
2021/08/27 06:14:47;;;;;;;4.77;2.13;;;;;;;16.28;72.26;98993.59;4885084;29;20329;-88
2021/08/27 06:17:14;;;;;;;2.67;1.80;;;;;;;16.34;71.29;98977.38;4903135;29;20295;-90
2021/08/27 06:19:41;;;;;;;3.63;2.67;;;;;;;16.51;71.15;98997.66;4893000;29;20255;-88
2021/08/27 06:22:07;;;;;;;4.00;2.20;;;;;;;16.54;70.66;98996.28;4918269;29;20522;-89
2021/08/27 06:24:34;;;;;;;4.53;2.93;;;;;;;16.57;70.40;99004.63;4902403;29;20235;-89
2021/08/27 06:27:04;;;;;;;4.10;3.60;;;;;;;16.65;70.81;99014.16;4903585;29;20233;-85
2021/08/27 06:29:31;;;;;;;3.93;2.80;;;;;;;16.66;70.09;99013.03;4907578;29;20300;-86
2021/08/27 06:31:58;;;;;;;2.73;2.40;;;;;;;16.68;71.02;99008.19;4917436;29;20284;-87
2021/08/27 06:34:25;;;;;;;2.40;2.17;;;;;;;16.80;70.24;99016.00;4896738;29;20649;-86
2021/08/27 06:36:52;;;;;;;3.27;2.47;;;;;;;16.85;69.64;99010.56;4896743;29;20231;-89
2021/08/27 06:39:20;;;;;;;3.57;2.43;;;;;;;16.81;69.53;99009.50;4910210;29;20242;-88
2021/08/27 06:41:47;;;;;;;2.43;2.23;;;;;;;16.88;69.38;99002.72;4900832;29;20298;-88
2021/08/27 06:44:14;;;;;;;3.77;2.93;;;;;;;17.01;68.47;99012.13;4915103;29;20230;-88
2021/08/27 06:46:43;;;;;;;5.47;4.97;;;;;;;16.97;67.82;99019.19;4901439;29;20260;-86
2021/08/27 06:49:11;;;;;;;2.73;2.50;;;;;;;16.88;68.65;99007.31;4882874;29;20242;-86
2021/08/27 06:51:39;;;;;;;1.80;1.60;;;;;;;16.78;65.63;99001.94;4909100;29;20318;-88
2021/08/27 06:54:05;;;;;;;1.80;1.70;;;;;;;16.86;65.23;99013.00;4895870;29;20536;-88
2021/08/27 06:56:32;;;;;;;1.83;1.20;;;;;;;16.89;64.76;99017.06;4904823;29;20254;-88
2021/08/27 06:58:59;;;;;;;1.70;1.60;;;;;;;16.90;64.13;99011.34;4898659;29;20241;-90
2021/08/27 07:01:27;;;;;;;1.23;1.20;;;;;;;17.13;62.90;99026.97;4912631;29;20519;-87
2021/08/27 07:03:54;;;;;;;1.30;1.20;;;;;;;17.33;61.38;99025.25;4904564;29;20231;-88
2021/08/27 07:06:21;;;;;;;1.10;1.00;;;;;;;17.59;61.44;99018.66;4917076;29;20247;-88
2021/08/27 07:08:48;;;;;;;0.97;0.97;;;;;;;17.73;61.34;99024.28;4910920;29;20240;-84
2021/08/27 07:11:16;;;;;;;2.40;0.93;;;;;;;17.92;59.93;99036.06;4898749;29;20357;-86
2021/08/27 07:13:43;;;;;;;0.80;0.80;;;;;;;17.77;59.73;99033.47;4890966;29;20251;-86
2021/08/27 07:16:11;;;;;;;0.73;0.70;;;;;;;17.66;59.70;99027.28;4872559;29;20330;-91
2021/08/27 07:18:40;;;;;;;1.30;0.80;;;;;;;17.77;59.00;99028.03;4913390;29;20231;-86
2021/08/27 07:21:08;;;;;;;1.00;0.83;;;;;;;17.85;59.06;99032.88;4884027;29;20278;-89
2021/08/27 07:23:35;;;;;;;2.00;1.07;;;;;;;17.87;57.99;99027.97;4885482;29;20351;-89
2021/08/27 07:26:02;;;;;;;1.50;0.90;;;;;;;17.90;57.47;99027.41;4897371;29;20230;-89
2021/08/27 07:28:29;;;;;;;1.43;0.77;;;;;;;18.09;57.73;99027.53;4902146;29;20313;-88
2021/08/27 07:30:56;;;;;;;0.80;0.73;;;;;;;18.20;56.82;99026.34;4889941;29;20634;-90
2021/08/27 07:33:22;;;;;;;0.80;0.80;;;;;;;18.70;55.99;99028.66;4887555;29;20237;-87
2021/08/27 07:35:50;;;;;;;0.83;0.80;;;;;;;19.14;54.72;99025.72;4917957;29;20233;-87
2021/08/27 07:38:17;;;;;;;1.30;0.70;;;;;;;19.45;53.47;99028.09;4881362;29;20254;-86
2021/08/27 07:40:43;;;;;;;0.80;0.70;;;;;;;19.58;52.62;99030.88;4900100;29;20255;-86
2021/08/27 07:43:10;;;;;;;0.70;0.70;;;;;;;19.66;53.57;99035.66;4918761;29;20238;-86
2021/08/27 07:45:37;;;;;;;0.77;0.77;;;;;;;19.84;51.80;99044.91;4885757;29;20226;-89
2021/08/27 07:48:04;;;;;;;0.90;0.90;;;;;;;19.97;51.96;99035.22;4890476;29;20226;-86
2021/08/27 07:50:31;;;;;;;0.70;0.70;;;;;;;19.92;52.24;99038.03;4917119;29;20684;-89
2021/08/27 07:52:57;;;;;;;1.50;1.17;;;;;;;20.01;51.55;99045.22;4900967;29;20330;-85
2021/08/27 07:55:24;;;;;;;0.93;0.90;;;;;;;19.92;50.68;99038.03;4903069;29;20223;-86
2021/08/27 07:57:52;;;;;;;1.43;1.00;;;;;;;19.77;52.28;99055.38;4870158;29;20262;-86
2021/08/27 08:00:19;;;;;;;1.40;1.30;;;;;;;20.04;51.64;99043.81;4904470;29;20285;-87
2021/08/27 08:02:46;;;;;;;1.70;1.00;;;;;;;19.82;51.76;99058.00;4904772;29;20289;-88
2021/08/27 08:05:13;;;;;;;0.93;0.90;;;;;;;20.07;51.08;99043.22;4920474;29;20521;-87
2021/08/27 08:07:39;;;;;;;1.63;0.93;;;;;;;19.85;51.94;99032.94;4918991;29;20261;-86
2021/08/27 08:10:06;;;;;;;1.27;0.90;;;;;;;19.87;52.29;99063.38;4903761;29;20234;-84
2021/08/27 08:12:33;;;;;;;1.80;1.27;;;;;;;19.33;52.95;99052.91;4916958;29;20317;-83
2021/08/27 08:15:00;;;;;;;1.70;1.60;;;;;;;19.26;53.42;99058.72;4903950;29;20238;-88
2021/08/27 08:17:27;;;;;;;4.93;4.47;;;;;;;18.84;54.30;99064.06;4901343;29;20262;-85
2021/08/27 08:19:54;;;;;;;1.20;1.10;;;;;;;18.73;53.42;99063.34;4918937;29;20234;-88
2021/08/27 08:22:21;;;;;;;1.70;1.10;;;;;;;18.72;54.15;99059.00;4919907;29;20242;-86
2021/08/27 08:24:49;;;;;;;1.13;1.10;;;;;;;18.90;53.51;99069.13;4904187;29;20341;-85
2021/08/27 08:27:16;;;;;;;1.57;1.10;;;;;;;18.92;53.60;99079.72;4904078;29;20242;-85
2021/08/27 08:29:43;;;;;;;1.23;1.13;;;;;;;18.91;53.45;99069.94;4904216;29;20230;-83
2021/08/27 08:32:10;;;;;;;1.60;1.10;;;;;;;18.80;54.15;99071.16;4903732;29;20626;-87
2021/08/27 08:34:37;;;;;;;1.20;1.10;;;;;;;18.87;54.44;99088.72;4904136;29;20230;-87
2021/08/27 08:37:04;;;;;;;1.30;1.20;;;;;;;18.92;53.71;99080.53;4904172;29;20234;-83
2021/08/27 08:39:31;;;;;;;1.60;1.20;;;;;;;18.82;53.51;99066.25;4918470;29;20591;-87
2021/08/27 08:41:58;;;;;;;4.17;3.87;;;;;;;18.86;53.89;99080.84;4892137;29;20219;-86
2021/08/27 08:44:25;;;;;;;1.60;1.50;;;;;;;19.02;54.02;99076.91;4885258;29;20235;-88
2021/08/27 08:46:52;;;;;;;1.43;1.30;;;;;;;19.17;53.74;99076.75;4901124;29;20298;-86
2021/08/27 08:49:20;;;;;;;1.83;1.63;;;;;;;19.83;52.12;99081.34;4898614;29;20234;-87
2021/08/27 08:51:50;;;;;;;2.33;2.00;;;;;;;20.33;51.55;99079.03;4885252;29;20636;-90
2021/08/27 08:54:17;;;;;;;1.43;1.20;;;;;;;20.43;49.92;99074.22;4870275;29;20250;-86
2021/08/27 08:56:45;;;;;;;1.70;1.60;;;;;;;20.56;49.66;99083.53;4885220;29;20639;-87
2021/08/27 08:59:11;;;;;;;1.40;1.30;;;;;;;20.72;49.31;99086.81;4892637;29;20222;-85
2021/08/27 09:01:38;;;;;;;3.47;2.50;;;;;;;20.72;49.45;99076.72;4903882;29;20237;-87
2021/08/27 09:04:06;;;;;;;2.50;1.53;;;;;;;20.73;49.62;99088.41;4918761;29;20661;-85
2021/08/27 09:06:36;;;;;;;2.50;1.20;;;;;;;20.46;50.29;99087.22;4903975;29;20238;-84
2021/08/27 09:09:03;;;;;;;1.03;1.00;;;;;;;20.68;49.50;99081.13;4898850;29;20925;-84
2021/08/27 09:11:31;;;;;;;1.20;1.10;;;;;;;20.63;49.24;99083.94;4869479;29;20801;-83
2021/08/27 09:14:01;;;;;;;2.30;1.20;;;;;;;20.71;49.28;99082.47;4884685;29;20237;-88
2021/08/27 09:16:31;;;;;;;1.43;1.27;;;;;;;20.98;49.18;99082.53;4884327;29;20231;-83
2021/08/27 09:18:58;;;;;;;3.10;1.20;;;;;;;20.86;48.63;99077.53;4885777;29;20238;-84
2021/08/27 09:21:30;;;;;;;1.10;1.10;;;;;;;20.64;49.63;99088.28;4884631;29;20796;-86
2021/08/27 09:24:25;;;;;;;1.03;0.93;;;;;;;20.28;49.13;99089.94;4901701;29;20235;-81
2021/08/27 09:27:01;;;;;;;1.53;1.30;;;;;;;20.01;50.87;99096.88;4903399;29;20237;-85
2021/08/27 09:29:42;;;;;;;1.17;1.17;;;;;;;19.95;50.25;99095.34;4899748;29;20639;-80
2021/08/27 09:32:30;;;;;;;1.40;1.20;;;;;;;19.89;50.63;99092.97;4904861;29;20310;-87
2021/08/27 09:35:16;;;;;;;1.10;1.10;;;;;;;19.90;50.92;99097.31;4884353;29;20244;-88
2021/08/27 09:37:46;;;;;;;1.90;1.10;;;;;;;20.02;50.55;99098.47;4909749;29;20756;-84
2021/08/27 09:40:21;;;;;;;1.23;1.00;;;;;;;19.94;50.20;99090.19;4902470;29;20388;-82
2021/08/27 09:42:50;;;;;;;1.57;1.07;;;;;;;20.13;50.01;99096.44;4887502;29;20685;-86
2021/08/27 09:45:20;;;;;;;0.80;0.80;;;;;;;20.18;50.02;99096.34;4887679;29;20234;-84
2021/08/27 09:48:07;;;;;;;1.23;0.90;;;;;;;20.09;49.65;99090.78;4888228;29;20262;-83
2021/08/27 09:50:37;;;;;;;0.90;0.90;;;;;;;20.03;50.11;99105.53;4883894;29;20234;-85
2021/08/27 09:53:06;;;;;;;2.13;1.20;;;;;;;20.47;48.81;99097.03;4900716;29;20246;-83
2021/08/27 09:55:35;;;;;;;1.10;1.00;;;;;;;20.82;48.61;99090.16;4879150;29;20246;-82
2021/08/27 09:58:07;;;;;;;1.77;0.97;;;;;;;21.10;47.80;99107.34;4868362;29;20242;-85
2021/08/27 10:00:36;;;;;;;1.07;0.97;;;;;;;21.11;47.53;99111.69;4883909;29;20290;-82
2021/08/27 10:03:25;;;;;;;0.90;0.80;;;;;;;21.30;47.01;99112.44;4883712;29;20259;-89
2021/08/27 10:05:56;;;;;;;0.90;0.90;;;;;;;21.39;46.90;99107.09;4884354;29;20234;-83
2021/08/27 10:08:25;;;;;;;3.70;3.40;;;;;;;21.45;46.06;99095.78;4899110;29;20238;-86
2021/08/27 10:10:54;;;;;;;1.50;1.40;;;;;;;21.43;45.89;99105.38;4883608;29;20239;-86
2021/08/27 10:13:22;;;;;;;1.17;1.10;;;;;;;21.56;45.85;99112.72;4899141;29;20263;-85
2021/08/27 10:15:49;;;;;;;1.87;1.40;;;;;;;20.93;47.91;99107.13;4883695;29;20243;-85
2021/08/27 10:18:16;;;;;;;1.50;1.13;;;;;;;21.21;47.35;99116.97;4883119;29;20313;-85
2021/08/27 10:20:45;;;;;;;1.40;1.30;;;;;;;21.57;46.60;99099.91;4882986;29;20597;-86
2021/08/27 10:23:15;;;;;;;1.10;1.10;;;;;;;21.88;45.68;99103.63;4883448;29;20318;-85
2021/08/27 10:25:42;;;;;;;3.50;1.50;;;;;;;21.80;46.08;99101.59;4914020;29;20286;-88
2021/08/27 10:28:09;;;;;;;1.43;1.07;;;;;;;21.72;45.65;99100.41;4886574;29;20234;-84
2021/08/27 10:30:48;;;;;;;1.30;1.20;;;;;;;21.89;45.10;99102.47;4886721;29;20231;-86
2021/08/27 10:33:17;;;;;;;1.20;1.10;;;;;;;22.08;44.80;99095.00;4914385;29;20628;-87
2021/08/27 10:35:47;;;;;;;2.80;1.27;;;;;;;21.99;44.98;99105.03;4883677;29;20248;-87
2021/08/27 10:38:39;;;;;;;1.87;1.00;;;;;;;22.04;45.30;99107.63;4898645;29;20239;-84
2021/08/27 10:41:11;;;;;;;1.77;1.10;;;;;;;21.66;46.12;99103.53;4898363;29;20228;-88
2021/08/27 10:43:51;;;;;;;2.73;1.87;;;;;;;21.91;46.01;99100.28;4898714;29;20265;-85
2021/08/27 10:46:18;;;;;;;1.10;1.00;;;;;;;21.82;45.70;99089.28;4898005;29;20262;-86
2021/08/27 10:48:49;;;;;;;1.30;1.10;;;;;;;22.07;44.72;99093.38;4898479;29;20234;-86
2021/08/27 10:51:32;;;;;;;1.30;1.00;;;;;;;22.81;43.92;99093.81;4883118;29;20233;-83
2021/08/27 10:53:59;;;;;;;1.90;1.07;;;;;;;22.99;44.06;99075.59;4882996;29;20235;-85
2021/08/27 10:56:52;;;;;;;1.30;1.10;;;;;;;23.15;42.19;99090.44;4897998;29;20336;-85
2021/08/27 10:59:24;;;;;;;1.53;0.87;;;;;;;23.34;42.73;99081.97;4883549;29;20283;-83
2021/08/27 11:01:57;;;;;;;1.10;1.00;;;;;;;23.42;42.30;99094.88;4898555;29;20299;-85
2021/08/27 11:04:40;;;;;;;1.17;1.07;;;;;;;23.31;41.37;99077.97;4898076;29;20746;-83
2021/08/27 11:07:14;;;;;;;1.03;0.90;;;;;;;23.22;42.24;99091.59;4899750;29;20236;-85
2021/08/27 11:10:02;;;;;;;2.07;1.20;;;;;;;23.18;42.54;99076.16;4867513;29;20236;-84
2021/08/27 11:12:42;;;;;;;1.50;1.40;;;;;;;23.30;43.08;99086.47;4884253;29;20315;-87
2021/08/27 11:15:30;;;;;;;2.80;2.50;;;;;;;23.17;42.17;99077.25;4883004;29;20237;-87
2021/08/27 11:18:13;;;;;;;1.10;1.10;;;;;;;22.98;41.91;99077.50;4895767;29;20236;-87
2021/08/27 11:20:40;;;;;;;1.27;1.00;;;;;;;22.92;41.05;99069.75;4917737;29;20234;-85
2021/08/27 11:23:08;;;;;;;0.80;0.80;;;;;;;22.44;42.10;99056.78;4917451;29;20673;-85
2021/08/27 11:25:39;;;;;;;0.93;0.90;;;;;;;22.64;42.00;99069.09;4932607;29;20240;-86
2021/08/27 11:28:10;;;;;;;1.00;0.90;;;;;;;22.38;42.49;99061.53;4917058;29;20237;-83
2021/08/27 11:30:38;;;;;;;2.30;1.83;;;;;;;22.35;43.23;99061.34;4901680;29;20721;-84
2021/08/27 11:33:05;;;;;;;2.17;1.10;;;;;;;22.31;43.12;99058.44;4916753;29;20278;-85
2021/08/27 11:35:45;;;;;;;1.83;1.40;;;;;;;22.37;43.27;99057.19;4886602;29;20302;-86
2021/08/27 11:38:13;;;;;;;0.80;0.80;;;;;;;22.08;43.57;99056.81;4886702;29;20237;-85
2021/08/27 11:40:41;;;;;;;0.80;0.80;;;;;;;21.93;43.48;99032.59;4902026;29;20227;-85
2021/08/27 11:43:07;;;;;;;0.90;0.70;;;;;;;22.34;42.84;99040.66;4871490;29;20317;-88
2021/08/27 11:45:34;;;;;;;1.33;0.90;;;;;;;22.32;43.48;99038.22;4871063;29;20329;-88